createdAt,value
2017-08-02T00:00:35.310Z,17.7
2017-08-02T00:01:36.715Z,17.8
2017-08-02T00:02:38.139Z,17.7
2017-08-02T00:03:39.629Z,17.8
2017-08-02T00:04:41.059Z,17.8
2017-08-02T00:05:42.461Z,17.8
2017-08-02T00:06:43.950Z,17.8
2017-08-02T00:07:45.364Z,17.7
2017-08-02T00:08:46.781Z,17.8
2017-08-02T00:09:48.294Z,17.7
2017-08-02T00:10:49.699Z,17.7
2017-08-02T00:11:51.135Z,17.8
2017-08-02T00:12:52.593Z,17.7
2017-08-02T00:13:53.991Z,17.7
2017-08-02T00:14:55.394Z,17.8
2017-08-02T00:15:56.914Z,17.8
2017-08-02T00:16:58.350Z,17.7
2017-08-02T00:17:59.754Z,17.7
2017-08-02T00:19:01.499Z,17.8
2017-08-02T00:20:02.901Z,17.7
2017-08-02T00:21:04.307Z,17.7
2017-08-02T00:22:05.754Z,17.7
2017-08-02T00:23:07.172Z,17.7
2017-08-02T00:24:08.621Z,17.7
2017-08-02T00:25:10.024Z,17.7
2017-08-02T00:26:11.447Z,17.7
2017-08-02T00:27:12.962Z,17.6
2017-08-02T00:28:14.378Z,17.7
2017-08-02T00:29:15.785Z,17.7
2017-08-02T00:30:17.287Z,17.6
2017-08-02T00:31:18.718Z,17.7
2017-08-02T00:32:20.124Z,17.6
2017-08-02T00:33:21.623Z,17.7
2017-08-02T00:34:23.023Z,17.6
2017-08-02T00:35:24.429Z,17.6
2017-08-02T00:36:25.976Z,17.6
2017-08-02T00:37:27.380Z,17.7
2017-08-02T00:38:29.031Z,17.7
2017-08-02T00:39:30.435Z,17.6
2017-08-02T00:40:31.845Z,17.6
2017-08-02T00:41:33.384Z,17.6
2017-08-02T00:42:34.794Z,17.6
2017-08-02T00:43:36.196Z,17.6
2017-08-02T00:44:37.651Z,17.6
2017-08-02T00:45:39.095Z,17.6
2017-08-02T00:46:40.501Z,17.6
2017-08-02T00:47:42.010Z,17.6
2017-08-02T00:48:43.407Z,17.6
2017-08-02T00:49:44.855Z,17.5
2017-08-02T00:50:46.259Z,17.6
2017-08-02T00:51:47.680Z,17.6
2017-08-02T00:52:49.242Z,17.5
2017-08-02T00:53:50.709Z,17.6
2017-08-02T00:54:52.137Z,17.5
2017-08-02T00:55:53.702Z,17.5
2017-08-02T00:56:55.116Z,17.5
2017-08-02T00:57:56.584Z,17.5
2017-08-02T00:58:57.986Z,17.6
2017-08-02T00:59:59.476Z,17.5
2017-08-02T01:01:00.881Z,17.6
2017-08-02T01:02:02.309Z,17.5
2017-08-02T01:03:03.782Z,17.5
2017-08-02T01:04:05.196Z,17.5
2017-08-02T01:05:06.634Z,17.4
2017-08-02T01:06:08.101Z,17.4
2017-08-02T01:07:09.545Z,17.4
2017-08-02T01:08:10.943Z,17.4
2017-08-02T01:09:12.454Z,17.5
2017-08-02T01:10:13.858Z,17.3
2017-08-02T01:11:15.261Z,17.5
2017-08-02T01:12:16.743Z,17.5
2017-08-02T01:13:18.150Z,17.3
2017-08-02T01:14:19.566Z,17.3
2017-08-02T01:15:21.080Z,17.3
2017-08-02T01:16:22.507Z,17.3
2017-08-02T01:17:23.906Z,17.3
2017-08-02T01:18:25.386Z,17.3
2017-08-02T01:19:26.792Z,17.3
2017-08-02T01:20:28.267Z,17.3
2017-08-02T01:21:29.715Z,17.3
2017-08-02T01:22:31.250Z,17.3
2017-08-02T01:23:32.694Z,17.3
2017-08-02T01:24:34.224Z,17.3
2017-08-02T01:25:35.626Z,17.3
2017-08-02T01:26:37.030Z,17.3
2017-08-02T01:27:38.554Z,17.4
2017-08-02T01:28:39.989Z,17.3
2017-08-02T01:29:41.390Z,17.4
2017-08-02T01:30:43.020Z,17.3
2017-08-02T01:31:44.419Z,17.3
2017-08-02T01:32:45.822Z,17.4
2017-08-02T01:33:47.539Z,17.3
2017-08-02T01:34:48.943Z,17.3
2017-08-02T01:35:50.374Z,17.2
2017-08-02T01:36:51.925Z,17.3
2017-08-02T01:37:53.343Z,17.3
2017-08-02T01:38:54.808Z,17.3
2017-08-02T01:39:56.228Z,17.2
2017-08-02T01:40:57.700Z,17.2
2017-08-02T01:41:59.105Z,17.2
2017-08-02T01:43:00.684Z,17.2
2017-08-02T01:44:02.092Z,17.3
2017-08-02T01:45:03.759Z,17.2
2017-08-02T01:46:05.161Z,17.2
2017-08-02T01:47:06.845Z,17.3
2017-08-02T01:48:08.250Z,17.2
2017-08-02T01:49:09.943Z,17.3
2017-08-02T01:50:11.386Z,17.3
2017-08-02T01:51:13.035Z,17.2
2017-08-02T01:52:14.416Z,17.2
2017-08-02T01:53:16.107Z,17.2
2017-08-02T01:54:17.502Z,17.2
2017-08-02T01:55:19.213Z,17.2
2017-08-02T01:56:20.616Z,17.1
2017-08-02T01:57:22.095Z,17.1
2017-08-02T01:58:23.504Z,17.2
2017-08-02T01:59:25.153Z,17.2
2017-08-02T02:00:26.556Z,17.2
2017-08-02T02:01:28.236Z,17.1
2017-08-02T02:02:29.673Z,17.1
2017-08-02T02:03:31.321Z,17.1
2017-08-02T02:04:32.742Z,17.1
2017-08-02T02:05:34.409Z,17.1
2017-08-02T02:06:35.810Z,17.1
2017-08-02T02:07:37.465Z,17.1
2017-08-02T02:08:38.871Z,17.1
2017-08-02T02:09:40.274Z,17.1
2017-08-02T02:10:41.695Z,17.2
2017-08-02T02:11:43.102Z,17.1
2017-08-02T02:12:44.589Z,17.0
2017-08-02T02:13:45.992Z,17.1
2017-08-02T02:14:47.393Z,17.1
2017-08-02T02:15:48.811Z,17.1
2017-08-02T02:16:50.213Z,17.1
2017-08-02T02:17:51.632Z,17.1
2017-08-02T02:18:54.360Z,17.1
2017-08-02T02:19:55.764Z,17.1
2017-08-02T02:20:57.446Z,17.1
2017-08-02T02:21:58.883Z,17.1
2017-08-02T02:23:00.292Z,17.1
2017-08-02T02:24:01.999Z,17.1
2017-08-02T02:25:03.407Z,17.1
2017-08-02T02:26:04.807Z,17.1
2017-08-02T02:27:06.498Z,17.1
2017-08-02T02:28:07.908Z,17.1
2017-08-02T02:29:09.335Z,17.1
2017-08-02T02:30:11.024Z,17.1
2017-08-02T02:31:12.462Z,17.1
2017-08-02T02:32:13.872Z,17.2
2017-08-02T02:33:15.564Z,17.2
2017-08-02T02:34:16.993Z,17.2
2017-08-02T02:35:18.665Z,17.1
2017-08-02T02:36:20.060Z,17.1
2017-08-02T02:37:21.721Z,17.1
2017-08-02T02:38:23.122Z,17.1
2017-08-02T02:39:24.567Z,17.1
2017-08-02T02:40:26.244Z,17.1
2017-08-02T02:41:27.704Z,17.1
2017-08-02T02:42:29.104Z,17.1
2017-08-02T02:43:30.812Z,17.1
2017-08-02T02:44:32.216Z,17.1
2017-08-02T02:45:33.616Z,17.1
2017-08-02T02:46:35.300Z,17.1
2017-08-02T02:47:36.706Z,17.0
2017-08-02T02:48:38.134Z,17.0
2017-08-02T02:49:39.819Z,17.0
2017-08-02T02:50:41.245Z,17.1
2017-08-02T02:51:42.647Z,17.1
2017-08-02T02:52:44.350Z,17.1
2017-08-02T02:53:45.751Z,17.0
2017-08-02T02:54:47.470Z,17.0
2017-08-02T02:55:48.913Z,17.0
2017-08-02T02:56:50.517Z,17.0
2017-08-02T02:57:51.920Z,17.0
2017-08-02T02:58:53.602Z,17.0
2017-08-02T02:59:55.007Z,17.0
2017-08-02T03:00:56.771Z,17.0
2017-08-02T03:01:58.151Z,17.0
2017-08-02T03:02:59.581Z,16.9
2017-08-02T03:04:01.215Z,17.0
2017-08-02T03:05:02.624Z,16.9
2017-08-02T03:06:04.020Z,16.9
2017-08-02T03:07:05.539Z,16.9
2017-08-02T03:08:06.960Z,16.9
2017-08-02T03:09:08.363Z,17.0
2017-08-02T03:10:10.065Z,16.9
2017-08-02T03:11:11.463Z,16.9
2017-08-02T03:12:12.864Z,16.9
2017-08-02T03:13:14.382Z,17.0
2017-08-02T03:14:15.795Z,17.0
2017-08-02T03:15:17.211Z,17.0
2017-08-02T03:16:18.910Z,16.9
2017-08-02T03:17:20.328Z,17.0
2017-08-02T03:18:21.731Z,16.9
2017-08-02T03:19:23.435Z,17.0
2017-08-02T03:20:24.838Z,17.0
2017-08-02T03:21:26.520Z,17.0
2017-08-02T03:22:27.954Z,17.0
2017-08-02T03:23:29.605Z,17.0
2017-08-02T03:24:31.025Z,17.1
2017-08-02T03:25:32.897Z,17.0
2017-08-02T03:26:34.332Z,16.9
2017-08-02T03:27:35.993Z,17.0
2017-08-02T03:28:37.391Z,16.9
2017-08-02T03:29:39.066Z,17.0
2017-08-02T03:30:40.484Z,17.0
2017-08-02T03:31:42.153Z,17.0
2017-08-02T03:32:43.558Z,17.0
2017-08-02T03:33:45.238Z,17.0
2017-08-02T03:34:46.656Z,17.0
2017-08-02T03:35:48.324Z,17.0
2017-08-02T03:36:49.727Z,17.0
2017-08-02T03:37:51.408Z,17.0
2017-08-02T03:38:52.814Z,17.0
2017-08-02T03:39:54.894Z,17.0
2017-08-02T03:40:56.303Z,17.0
2017-08-02T03:41:57.988Z,17.0
2017-08-02T03:42:59.395Z,17.0
2017-08-02T03:44:01.075Z,17.0
2017-08-02T03:45:02.511Z,16.9
2017-08-02T03:46:04.160Z,17.0
2017-08-02T03:47:05.563Z,16.9
2017-08-02T03:48:07.246Z,16.9
2017-08-02T03:49:08.666Z,16.9
2017-08-02T03:50:10.088Z,17.0
2017-08-02T03:51:11.770Z,16.9
2017-08-02T03:52:13.177Z,17.0
2017-08-02T03:53:14.609Z,17.0
2017-08-02T03:54:16.297Z,17.0
2017-08-02T03:55:17.703Z,17.0
2017-08-02T03:56:19.106Z,16.9
2017-08-02T03:57:20.617Z,17.0
2017-08-02T03:58:22.022Z,16.9
2017-08-02T03:59:23.428Z,17.0
2017-08-02T04:00:24.941Z,17.0
2017-08-02T04:01:26.339Z,16.9
2017-08-02T04:02:27.742Z,16.9
2017-08-02T04:03:29.258Z,16.9
2017-08-02T04:04:30.666Z,17.0
2017-08-02T04:05:32.068Z,17.0
2017-08-02T04:06:33.582Z,17.0
2017-08-02T04:07:37.028Z,17.0
2017-08-02T04:08:38.399Z,16.9
2017-08-02T04:09:39.950Z,17.0
2017-08-02T04:10:41.355Z,16.9
2017-08-02T04:11:42.760Z,17.0
2017-08-02T04:12:44.279Z,16.9
2017-08-02T04:13:45.686Z,17.0
2017-08-02T04:14:47.095Z,17.0
2017-08-02T04:15:48.594Z,17.0
2017-08-02T04:16:50.009Z,17.0
2017-08-02T04:17:51.677Z,17.0
2017-08-02T04:18:53.084Z,17.0
2017-08-02T04:19:54.488Z,17.0
2017-08-02T04:20:56.000Z,17.0
2017-08-02T04:21:57.413Z,17.0
2017-08-02T04:22:58.816Z,17.0
2017-08-02T04:24:00.254Z,16.9
2017-08-02T04:25:01.663Z,17.0
2017-08-02T04:26:03.131Z,17.0
2017-08-02T04:27:04.562Z,17.0
2017-08-02T04:28:06.013Z,16.9
2017-08-02T04:29:07.434Z,17.0
2017-08-02T04:30:08.893Z,17.0
2017-08-02T04:31:10.295Z,17.0
2017-08-02T04:32:11.774Z,16.9
2017-08-02T04:33:13.179Z,17.0
2017-08-02T04:34:14.656Z,17.0
2017-08-02T04:35:16.084Z,17.0
2017-08-02T04:36:17.538Z,17.0
2017-08-02T04:37:18.945Z,17.0
2017-08-02T04:38:20.418Z,17.1
2017-08-02T04:39:21.825Z,17.0
2017-08-02T04:40:23.252Z,17.1
2017-08-02T04:41:24.786Z,17.1
2017-08-02T04:42:26.189Z,17.1
2017-08-02T04:43:27.622Z,17.1
2017-08-02T04:44:29.072Z,17.1
2017-08-02T04:45:30.476Z,17.1
2017-08-02T04:46:31.882Z,17.1
2017-08-02T04:47:33.382Z,17.2
2017-08-02T04:48:34.784Z,17.2
2017-08-02T04:49:36.202Z,17.3
2017-08-02T04:50:37.704Z,17.2
2017-08-02T04:51:39.107Z,17.3
2017-08-02T04:52:40.590Z,17.3
2017-08-02T04:53:41.991Z,17.3
2017-08-02T04:54:43.478Z,17.4
2017-08-02T04:55:44.883Z,17.2
2017-08-02T04:56:46.364Z,17.3
2017-08-02T04:57:47.800Z,17.3
2017-08-02T04:58:49.227Z,17.3
2017-08-02T04:59:50.649Z,17.3
2017-08-02T05:00:52.110Z,17.3
2017-08-02T05:01:53.517Z,17.4
2017-08-02T05:02:54.989Z,17.4
2017-08-02T05:03:56.396Z,17.4
2017-08-02T05:04:57.803Z,17.4
2017-08-02T05:05:59.313Z,17.4
2017-08-02T05:07:00.716Z,17.5
2017-08-02T05:08:02.148Z,17.5
2017-08-02T05:09:03.637Z,17.4
2017-08-02T05:10:05.041Z,17.4
2017-08-02T05:11:06.448Z,17.4
2017-08-02T05:12:07.955Z,17.5
2017-08-02T05:13:09.359Z,17.4
2017-08-02T05:14:10.767Z,17.4
2017-08-02T05:15:12.278Z,17.4
2017-08-02T05:16:13.687Z,17.5
2017-08-02T05:17:15.157Z,17.5
2017-08-02T05:18:16.568Z,17.5
2017-08-02T05:19:18.039Z,17.6
2017-08-02T05:20:19.448Z,17.7
2017-08-02T05:21:20.923Z,17.6
2017-08-02T05:22:22.334Z,17.6
2017-08-02T05:23:23.802Z,17.7
2017-08-02T05:24:25.210Z,17.7
2017-08-02T05:25:26.683Z,17.6
2017-08-02T05:26:28.155Z,17.7
2017-08-02T05:27:29.768Z,17.7
2017-08-02T05:28:31.177Z,17.7
2017-08-02T05:29:32.663Z,17.7
2017-08-02T05:30:34.085Z,17.8
2017-08-02T05:31:35.530Z,17.8
2017-08-02T05:32:36.947Z,17.7
2017-08-02T05:33:38.411Z,17.8
2017-08-02T05:34:39.816Z,17.8
2017-08-02T05:35:41.292Z,17.8
2017-08-02T05:36:42.701Z,17.8
2017-08-02T05:37:44.173Z,17.8
2017-08-02T05:38:45.578Z,17.9
2017-08-02T05:39:46.987Z,17.9
2017-08-02T05:40:48.504Z,17.8
2017-08-02T05:41:49.920Z,17.8
2017-08-02T05:42:51.327Z,17.9
2017-08-02T05:43:52.818Z,17.8
2017-08-02T05:44:54.224Z,17.9
2017-08-02T05:45:55.629Z,17.8
2017-08-02T05:46:57.143Z,17.8
2017-08-02T05:47:58.564Z,17.9
2017-08-02T05:49:00.020Z,18.0
2017-08-02T05:50:01.442Z,18.0
2017-08-02T05:51:02.902Z,17.8
2017-08-02T05:52:04.309Z,17.9
2017-08-02T05:53:05.783Z,17.9
2017-08-02T05:54:07.211Z,17.9
2017-08-02T05:55:08.664Z,17.9
2017-08-02T05:56:10.076Z,17.9
2017-08-02T05:57:11.600Z,17.9
2017-08-02T05:58:13.008Z,17.9
2017-08-02T05:59:14.682Z,17.9
2017-08-02T06:00:16.089Z,17.8
2017-08-02T06:01:17.562Z,17.9
2017-08-02T06:02:18.972Z,18.0
2017-08-02T06:03:20.599Z,18.0
2017-08-02T06:04:22.005Z,17.8
2017-08-02T06:05:23.416Z,17.8
2017-08-02T06:06:24.968Z,17.8
2017-08-02T06:07:26.378Z,17.9
2017-08-02T06:08:27.790Z,17.9
2017-08-02T06:09:29.287Z,17.8
2017-08-02T06:10:30.695Z,18.0
2017-08-02T06:11:32.101Z,17.9
2017-08-02T06:12:33.609Z,17.9
2017-08-02T06:13:35.017Z,17.9
2017-08-02T06:14:36.424Z,18.0
2017-08-02T06:15:37.929Z,17.9
2017-08-02T06:16:39.343Z,17.8
2017-08-02T06:17:40.809Z,18.0
2017-08-02T06:18:42.232Z,17.9
2017-08-02T06:19:43.895Z,18.0
2017-08-02T06:20:45.302Z,18.0
2017-08-02T06:21:46.712Z,17.9
2017-08-02T06:22:48.216Z,17.9
2017-08-02T06:23:49.673Z,17.9
2017-08-02T06:24:51.086Z,18.0
2017-08-02T06:25:52.741Z,18.0
2017-08-02T06:26:54.150Z,17.9
2017-08-02T06:27:55.623Z,18.0
2017-08-02T06:28:57.032Z,18.0
2017-08-02T06:29:58.504Z,17.9
2017-08-02T06:30:59.911Z,17.9
2017-08-02T06:32:01.318Z,17.9
2017-08-02T06:33:02.827Z,17.9
2017-08-02T06:34:04.235Z,17.9
2017-08-02T06:35:05.642Z,17.9
2017-08-02T06:36:07.146Z,17.9
2017-08-02T06:37:08.556Z,17.9
2017-08-02T06:38:10.023Z,17.9
2017-08-02T06:39:11.432Z,18.0
2017-08-02T06:40:12.841Z,18.0
2017-08-02T06:41:14.347Z,18.1
2017-08-02T06:42:15.756Z,18.0
2017-08-02T06:43:17.162Z,18.0
2017-08-02T06:44:18.668Z,18.1
2017-08-02T06:45:20.077Z,18.1
2017-08-02T06:46:21.489Z,18.1
2017-08-02T06:47:22.989Z,18.1
2017-08-02T06:48:24.396Z,18.1
2017-08-02T06:49:25.810Z,18.1
2017-08-02T06:50:27.311Z,18.2
2017-08-02T06:51:28.722Z,18.2
2017-08-02T06:52:30.130Z,18.3
2017-08-02T06:53:31.633Z,18.3
2017-08-02T06:54:33.041Z,18.3
2017-08-02T06:55:34.446Z,18.3
2017-08-02T06:56:35.956Z,18.4
2017-08-02T06:57:37.362Z,18.4
2017-08-02T06:58:38.948Z,18.4
2017-08-02T06:59:40.371Z,18.4
2017-08-02T07:00:41.921Z,18.4
2017-08-02T07:01:43.325Z,18.4
2017-08-02T07:02:44.734Z,18.5
2017-08-02T07:03:46.241Z,18.5
2017-08-02T07:04:47.653Z,18.5
2017-08-02T07:05:49.079Z,18.6
2017-08-02T07:06:50.563Z,18.7
2017-08-02T07:07:51.970Z,18.6
2017-08-02T07:08:53.378Z,18.7
2017-08-02T07:09:54.885Z,18.8
2017-08-02T07:10:56.296Z,19.0
2017-08-02T07:11:57.707Z,19.1
2017-08-02T07:12:59.203Z,19.2
2017-08-02T07:14:00.614Z,19.3
2017-08-02T07:15:02.085Z,19.4
2017-08-02T07:16:03.492Z,19.5
2017-08-02T07:17:04.898Z,19.5
2017-08-02T07:18:06.405Z,19.5
2017-08-02T07:19:07.810Z,19.5
2017-08-02T07:20:09.219Z,19.6
2017-08-02T07:21:10.727Z,19.6
2017-08-02T07:22:12.141Z,19.7
2017-08-02T07:23:13.608Z,19.7
2017-08-02T07:24:15.034Z,19.8
2017-08-02T07:25:16.492Z,19.9
2017-08-02T07:26:17.965Z,20.0
2017-08-02T07:27:19.372Z,20.0
2017-08-02T07:28:21.013Z,20.1
2017-08-02T07:29:22.420Z,20.1
2017-08-02T07:30:23.823Z,20.2
2017-08-02T07:31:25.335Z,20.3
2017-08-02T07:32:26.742Z,20.4
2017-08-02T07:33:28.152Z,20.5
2017-08-02T07:34:29.669Z,20.6
2017-08-02T07:35:31.077Z,20.7
2017-08-02T07:36:32.480Z,20.7
2017-08-02T07:37:33.975Z,20.7
2017-08-02T07:38:35.381Z,20.7
2017-08-02T07:39:36.858Z,20.7
2017-08-02T07:40:38.261Z,20.8
2017-08-02T07:41:39.674Z,20.7
2017-08-02T07:42:41.176Z,20.8
2017-08-02T07:43:42.581Z,20.9
2017-08-02T07:44:43.994Z,21.0
2017-08-02T07:45:45.498Z,21.0
2017-08-02T07:46:46.909Z,21.2
2017-08-02T07:47:48.378Z,21.2
2017-08-02T07:48:49.791Z,21.3
2017-08-02T07:49:51.264Z,21.3
2017-08-02T07:50:52.668Z,21.3
2017-08-02T07:51:54.141Z,21.4
2017-08-02T07:52:55.553Z,21.3
2017-08-02T07:53:57.036Z,21.4
2017-08-02T07:54:58.442Z,21.2
2017-08-02T07:55:59.852Z,21.3
2017-08-02T07:57:01.342Z,21.4
2017-08-02T07:58:02.748Z,21.5
2017-08-02T07:59:04.156Z,21.4
2017-08-02T08:00:05.662Z,21.5
2017-08-02T08:01:07.121Z,21.5
2017-08-02T08:02:08.537Z,21.7
2017-08-02T08:03:09.983Z,21.6
2017-08-02T08:04:11.394Z,21.7
2017-08-02T08:05:12.865Z,21.8
2017-08-02T08:06:14.273Z,21.8
2017-08-02T08:07:15.744Z,21.8
2017-08-02T08:08:17.155Z,21.8
2017-08-02T08:09:18.625Z,21.9
2017-08-02T08:10:20.038Z,22.0
2017-08-02T08:11:21.506Z,22.0
2017-08-02T08:12:22.919Z,22.1
2017-08-02T08:13:24.386Z,22.0
2017-08-02T08:14:25.796Z,22.0
2017-08-02T08:15:27.668Z,22.1
2017-08-02T08:16:29.077Z,22.2
2017-08-02T08:17:30.557Z,22.2
2017-08-02T08:18:31.967Z,22.3
2017-08-02T08:19:33.441Z,22.3
2017-08-02T08:20:34.844Z,22.5
2017-08-02T08:21:36.317Z,22.5
2017-08-02T08:22:37.734Z,22.5
2017-08-02T08:23:39.198Z,22.7
2017-08-02T08:24:40.611Z,22.7
2017-08-02T08:25:42.084Z,22.7
2017-08-02T08:26:43.491Z,22.7
2017-08-02T08:27:44.897Z,22.8
2017-08-02T08:28:46.398Z,22.8
2017-08-02T08:29:47.810Z,22.8
2017-08-02T08:30:49.267Z,22.9
2017-08-02T08:31:50.723Z,22.9
2017-08-02T08:32:52.135Z,22.9
2017-08-02T08:33:53.605Z,22.9
2017-08-02T08:34:55.015Z,22.9
2017-08-02T08:35:56.484Z,22.9
2017-08-02T08:36:57.893Z,22.8
2017-08-02T08:37:59.305Z,22.8
2017-08-02T08:39:00.795Z,22.9
2017-08-02T08:40:02.203Z,22.9
2017-08-02T08:41:03.610Z,23.0
2017-08-02T08:42:05.115Z,23.0
2017-08-02T08:43:06.530Z,23.1
2017-08-02T08:44:07.939Z,23.1
2017-08-02T08:45:09.436Z,23.2
2017-08-02T08:46:10.849Z,23.1
2017-08-02T08:47:12.260Z,23.2
2017-08-02T08:48:13.758Z,23.2
2017-08-02T08:49:15.170Z,23.2
2017-08-02T08:50:16.581Z,23.3
2017-08-02T08:51:18.085Z,23.3
2017-08-02T08:52:19.506Z,23.4
2017-08-02T08:53:20.929Z,23.5
2017-08-02T08:54:22.402Z,23.5
2017-08-02T08:55:23.815Z,23.5
2017-08-02T08:56:25.282Z,23.5
2017-08-02T08:57:26.690Z,23.5
2017-08-02T08:58:28.164Z,23.5
2017-08-02T08:59:29.574Z,23.5
2017-08-02T09:00:31.046Z,23.6
2017-08-02T09:01:32.466Z,23.7
2017-08-02T09:02:33.924Z,23.7
2017-08-02T09:03:35.337Z,23.8
2017-08-02T09:04:36.809Z,23.8
2017-08-02T09:05:38.227Z,23.8
2017-08-02T09:06:39.693Z,23.9
2017-08-02T09:07:41.109Z,23.9
2017-08-02T09:08:42.571Z,24.1
2017-08-02T09:09:43.988Z,24.2
2017-08-02T09:10:45.452Z,24.3
2017-08-02T09:11:46.861Z,24.3
2017-08-02T09:12:48.274Z,24.2
2017-08-02T09:13:49.775Z,24.3
2017-08-02T09:14:51.212Z,24.2
2017-08-02T09:15:52.624Z,24.2
2017-08-02T09:16:55.126Z,24.3
2017-08-02T09:17:56.536Z,24.4
2017-08-02T09:18:58.017Z,24.3
2017-08-02T09:19:59.429Z,24.4
2017-08-02T09:21:00.880Z,24.4
2017-08-02T09:22:02.295Z,24.3
2017-08-02T09:23:03.721Z,24.4
2017-08-02T09:24:05.223Z,24.4
2017-08-02T09:25:06.661Z,24.4
2017-08-02T09:26:08.076Z,24.4
2017-08-02T09:27:09.524Z,24.5
2017-08-02T09:28:10.938Z,24.5
2017-08-02T09:29:12.381Z,24.6
2017-08-02T09:30:13.851Z,24.6
2017-08-02T09:31:15.280Z,24.8
2017-08-02T09:32:16.695Z,24.9
2017-08-02T09:33:18.174Z,24.9
2017-08-02T09:34:19.589Z,25.1
2017-08-02T09:35:21.060Z,25.2
2017-08-02T09:36:22.489Z,25.1
2017-08-02T09:37:23.907Z,25.2
2017-08-02T09:38:25.372Z,25.3
2017-08-02T09:39:26.789Z,25.4
2017-08-02T09:40:28.200Z,25.5
2017-08-02T09:41:29.702Z,25.5
2017-08-02T09:42:31.112Z,25.5
2017-08-02T09:43:32.530Z,25.6
2017-08-02T09:44:34.019Z,25.7
2017-08-02T09:45:35.444Z,25.8
2017-08-02T09:46:36.899Z,25.8
2017-08-02T09:47:38.324Z,25.9
2017-08-02T09:48:39.778Z,26.1
2017-08-02T09:49:41.213Z,26.1
2017-08-02T09:50:42.672Z,26.2
2017-08-02T09:51:44.102Z,26.4
2017-08-02T09:52:45.644Z,26.5
2017-08-02T09:53:47.072Z,26.6
2017-08-02T09:54:48.725Z,26.6
2017-08-02T09:55:50.201Z,26.6
2017-08-02T09:56:51.813Z,26.8
2017-08-02T09:57:53.254Z,26.8
2017-08-02T09:58:54.687Z,26.8
2017-08-02T09:59:56.340Z,26.8
2017-08-02T10:00:57.784Z,26.8
2017-08-02T10:01:59.199Z,26.8
2017-08-02T10:03:00.864Z,26.8
2017-08-02T10:04:02.285Z,26.8
2017-08-02T10:05:03.713Z,26.7
2017-08-02T10:06:05.385Z,26.7
2017-08-02T10:07:06.805Z,26.7
2017-08-02T10:08:08.246Z,26.7
2017-08-02T10:09:10.116Z,26.7
2017-08-02T10:10:11.539Z,26.7
2017-08-02T10:11:12.956Z,26.7
2017-08-02T10:12:14.637Z,26.7
2017-08-02T10:13:16.058Z,26.7
2017-08-02T10:14:17.477Z,26.8
2017-08-02T10:15:19.195Z,26.7
2017-08-02T10:16:20.607Z,26.8
2017-08-02T10:17:22.034Z,26.7
2017-08-02T10:18:23.704Z,26.7
2017-08-02T10:19:25.122Z,26.7
2017-08-02T10:20:26.540Z,26.7
2017-08-02T10:21:29.530Z,26.7
2017-08-02T10:22:31.765Z,26.8
2017-08-02T10:23:33.767Z,26.7
2017-08-02T10:24:35.314Z,26.6
2017-08-02T10:25:36.732Z,26.8
2017-08-02T10:26:38.152Z,26.8
2017-08-02T10:27:39.638Z,27.0
2017-08-02T10:28:41.053Z,27.2
2017-08-02T10:29:42.469Z,27.2
2017-08-02T10:30:43.962Z,27.4
2017-08-02T10:31:45.377Z,27.5
2017-08-02T10:32:46.796Z,27.6
2017-08-02T10:33:48.281Z,27.6
2017-08-02T10:34:49.701Z,27.6
2017-08-02T10:35:51.121Z,27.7
2017-08-02T10:36:52.602Z,27.7
2017-08-02T10:37:54.016Z,27.8
2017-08-02T10:38:55.437Z,27.8
2017-08-02T10:39:56.922Z,28.1
2017-08-02T10:40:58.349Z,28.1
2017-08-02T10:41:59.763Z,28.2
2017-08-02T10:43:01.243Z,28.1
2017-08-02T10:44:02.663Z,28.2
2017-08-02T10:45:04.083Z,28.3
2017-08-02T10:46:05.501Z,28.1
2017-08-02T10:47:07.006Z,28.2
2017-08-02T10:48:08.443Z,28.1
2017-08-02T10:49:09.885Z,28.1
2017-08-02T10:50:11.299Z,28.1
2017-08-02T10:51:12.768Z,28.1
2017-08-02T10:52:14.188Z,28.1
2017-08-02T10:53:15.649Z,28.2
2017-08-02T10:54:17.063Z,28.2
2017-08-02T10:55:18.487Z,28.2
2017-08-02T10:56:19.976Z,28.2
2017-08-02T10:57:21.438Z,28.2
2017-08-02T10:58:22.852Z,28.1
2017-08-02T10:59:24.385Z,28.1
2017-08-02T11:00:25.803Z,27.9
2017-08-02T11:01:27.216Z,27.9
2017-08-02T11:02:29.013Z,27.9
2017-08-02T11:03:30.441Z,27.9
2017-08-02T11:04:31.860Z,27.9
2017-08-02T11:05:33.428Z,27.8
2017-08-02T11:06:34.842Z,27.9
2017-08-02T11:07:36.513Z,27.8
2017-08-02T11:08:37.929Z,27.9
2017-08-02T11:09:39.601Z,27.9
2017-08-02T11:10:41.026Z,27.8
2017-08-02T11:11:42.684Z,27.9
2017-08-02T11:12:44.100Z,28.0
2017-08-02T11:13:45.518Z,28.1
2017-08-02T11:14:47.209Z,28.0
2017-08-02T11:15:48.626Z,27.9
2017-08-02T11:16:50.049Z,27.8
2017-08-02T11:17:51.736Z,27.5
2017-08-02T11:18:53.147Z,27.5
2017-08-02T11:19:54.563Z,27.5
2017-08-02T11:20:56.272Z,27.5
2017-08-02T11:21:57.690Z,27.7
2017-08-02T11:22:59.107Z,27.9
2017-08-02T11:24:00.784Z,27.9
2017-08-02T11:25:02.208Z,27.8
2017-08-02T11:26:03.624Z,28.0
2017-08-02T11:27:05.315Z,28.4
2017-08-02T11:28:06.731Z,28.4
2017-08-02T11:29:08.150Z,28.8
2017-08-02T11:30:09.840Z,29.1
2017-08-02T11:31:11.291Z,29.3
2017-08-02T11:32:12.715Z,29.6
2017-08-02T11:33:14.156Z,29.8
2017-08-02T11:34:15.589Z,29.8
2017-08-02T11:35:17.005Z,29.8
2017-08-02T11:36:18.424Z,29.5
2017-08-02T11:37:19.839Z,29.4
2017-08-02T11:38:21.280Z,29.2
2017-08-02T11:39:22.698Z,28.9
2017-08-02T11:40:24.113Z,28.8
2017-08-02T11:41:25.685Z,28.6
2017-08-02T11:42:27.094Z,28.5
2017-08-02T11:43:28.778Z,28.4
2017-08-02T11:44:30.183Z,28.2
2017-08-02T11:45:31.852Z,28.1
2017-08-02T11:46:33.268Z,28.0
2017-08-02T11:47:34.938Z,27.9
2017-08-02T11:48:36.350Z,27.8
2017-08-02T11:49:37.818Z,27.7
2017-08-02T11:50:39.464Z,27.7
2017-08-02T11:51:40.877Z,27.6
2017-08-02T11:52:42.308Z,27.5
2017-08-02T11:53:43.988Z,27.6
2017-08-02T11:54:45.400Z,27.4
2017-08-02T11:55:47.073Z,27.3
2017-08-02T11:56:48.499Z,27.3
2017-08-02T11:57:50.157Z,27.2
2017-08-02T11:58:51.577Z,27.1
2017-08-02T11:59:53.271Z,27.1
2017-08-02T12:00:54.681Z,27.0
2017-08-02T12:01:56.330Z,27.0
2017-08-02T12:02:57.745Z,27.0
2017-08-02T12:03:59.432Z,26.9
2017-08-02T12:05:00.846Z,26.8
2017-08-02T12:06:02.266Z,26.8
2017-08-02T12:07:03.735Z,26.8
2017-08-02T12:08:05.149Z,26.7
2017-08-02T12:09:06.562Z,26.8
2017-08-02T12:10:08.057Z,26.8
2017-08-02T12:11:09.468Z,26.7
2017-08-02T12:12:11.145Z,26.7
2017-08-02T12:13:12.571Z,26.6
2017-08-02T12:14:14.223Z,26.4
2017-08-02T12:15:15.643Z,26.4
2017-08-02T12:16:17.313Z,26.4
2017-08-02T12:17:18.727Z,26.3
2017-08-02T12:18:20.410Z,26.2
2017-08-02T12:19:21.842Z,26.2
2017-08-02T12:20:23.255Z,26.1
2017-08-02T12:21:24.925Z,26.2
2017-08-02T12:22:26.336Z,26.1
2017-08-02T12:23:27.750Z,26.1
2017-08-02T12:24:29.254Z,26.1
2017-08-02T12:25:30.665Z,26.1
2017-08-02T12:26:32.177Z,26.1
2017-08-02T12:27:33.594Z,26.0
2017-08-02T12:28:35.109Z,26.1
2017-08-02T12:29:36.524Z,26.1
2017-08-02T12:30:37.990Z,26.0
2017-08-02T12:31:39.400Z,26.1
2017-08-02T12:32:40.869Z,26.4
2017-08-02T12:33:42.282Z,26.4
2017-08-02T12:34:43.750Z,26.4
2017-08-02T12:35:45.161Z,26.4
2017-08-02T12:36:46.631Z,26.4
2017-08-02T12:37:48.042Z,26.5
2017-08-02T12:38:49.532Z,26.8
2017-08-02T12:39:50.947Z,27.0
2017-08-02T12:40:52.394Z,27.2
2017-08-02T12:41:53.805Z,27.5
2017-08-02T12:42:55.279Z,27.9
2017-08-02T12:43:56.692Z,28.6
2017-08-02T12:44:58.099Z,29.4
2017-08-02T12:45:59.597Z,29.5
2017-08-02T12:47:01.018Z,29.2
2017-08-02T12:48:02.427Z,29.1
2017-08-02T12:49:03.915Z,28.7
2017-08-02T12:50:05.327Z,28.5
2017-08-02T12:51:06.739Z,28.3
2017-08-02T12:52:08.248Z,28.2
2017-08-02T12:53:09.643Z,28.1
2017-08-02T12:54:11.050Z,28.1
2017-08-02T12:55:12.583Z,28.1
2017-08-02T12:56:14.023Z,28.5
2017-08-02T12:57:15.447Z,28.8
2017-08-02T12:58:16.867Z,28.9
2017-08-02T12:59:18.328Z,28.7
2017-08-02T13:00:19.748Z,28.5
2017-08-02T13:01:21.154Z,28.4
2017-08-02T13:02:22.643Z,28.5
2017-08-02T13:03:24.062Z,28.5
2017-08-02T13:04:25.479Z,28.5
2017-08-02T13:05:26.960Z,28.5
2017-08-02T13:06:28.373Z,28.4
2017-08-02T13:07:29.777Z,28.3
2017-08-02T13:08:31.284Z,28.5
2017-08-02T13:09:32.696Z,28.8
2017-08-02T13:10:34.108Z,28.7
2017-08-02T13:11:35.623Z,28.7
2017-08-02T13:12:37.036Z,28.6
2017-08-02T13:13:38.484Z,28.6
2017-08-02T13:14:39.900Z,28.7
2017-08-02T13:15:41.366Z,28.6
2017-08-02T13:16:42.780Z,28.4
2017-08-02T13:17:44.197Z,28.2
2017-08-02T13:18:45.628Z,28.1
2017-08-02T13:19:47.123Z,27.9
2017-08-02T13:20:48.534Z,27.9
2017-08-02T13:21:49.952Z,27.9
2017-08-02T13:22:51.447Z,27.7
2017-08-02T13:23:52.860Z,27.7
2017-08-02T13:24:54.275Z,27.7
2017-08-02T13:25:55.777Z,27.6
2017-08-02T13:26:57.186Z,27.4
2017-08-02T13:27:58.598Z,27.3
2017-08-02T13:29:00.088Z,27.3
2017-08-02T13:30:01.498Z,27.2
2017-08-02T13:31:02.917Z,27.1
2017-08-02T13:32:04.408Z,26.9
2017-08-02T13:33:05.824Z,27.0
2017-08-02T13:34:07.304Z,26.8
2017-08-02T13:35:08.724Z,26.7
2017-08-02T13:36:10.132Z,26.8
2017-08-02T13:37:11.635Z,26.7
2017-08-02T13:38:13.048Z,26.8